Time,TemperatureF,DewpointF,PressureIn,WindDirection,WindDirectionDegrees,WindSpeedMPH,WindSpeedGustMPH,Humidity,HourlyPrecipIn,Conditions,Clouds,dailyrainin,SoftwareType,DateUTC
2013-04-23 00:01:00,59.4,48.8,30.03,SE,128,0.0,0.0,68,0.00,,SCT110,0.00,VWS V14.01,2013-04-23 05:01:00,
2013-04-23 00:02:00,59.4,48.8,30.03,SE,128,0.0,0.0,68,0.00,,SCT110,0.00,VWS V14.01,2013-04-23 05:02:00,
2013-04-23 00:07:00,59.5,49.3,30.03,SE,128,0.0,0.0,69,0.00,,SCT110,0.00,VWS V14.01,2013-04-23 05:07:00,
2013-04-23 00:12:00,59.4,49.2,30.03,SE,128,0.0,0.0,69,0.00,,SCT110,0.00,VWS V14.01,2013-04-23 05:12:00,
2013-04-23 00:17:00,59.3,49.1,30.03,SE,128,0.0,0.0,69,0.00,,SCT110,0.00,VWS V14.01,2013-04-23 05:17:00,
2013-04-23 00:22:00,59.2,49.4,30.03,SE,128,0.0,0.0,70,0.00,,SCT110,0.00,VWS V14.01,2013-04-23 05:22:00,
2013-04-23 00:27:00,59.1,49.3,30.02,SE,128,0.0,0.0,70,0.00,,SCT110,0.00,VWS V14.01,2013-04-23 05:27:00,
2013-04-23 00:32:00,59.0,49.2,30.03,SE,128,0.0,0.0,70,0.00,,SCT110,0.00,VWS V14.01,2013-04-23 05:32:00,
2013-04-23 00:37:00,58.9,49.2,30.03,SE,128,0.0,0.0,70,0.00,,SCT110,0.00,VWS V14.01,2013-04-23 05:37:00,
2013-04-23 00:42:00,58.8,49.0,30.03,SE,128,0.0,0.0,70,0.00,,OVC120,0.00,VWS V14.01,2013-04-23 05:42:00,
2013-04-23 00:47:00,58.7,49.3,30.03,SE,128,0.0,0.0,71,0.00,,OVC120,0.00,VWS V14.01,2013-04-23 05:47:00,
2013-04-23 00:52:00,58.6,49.2,30.03,SE,128,0.0,0.0,71,0.00,,OVC120,0.00,VWS V14.01,2013-04-23 05:52:00,
2013-04-23 00:57:00,58.4,49.0,30.03,SE,128,0.0,0.0,71,0.00,,OVC120,0.00,VWS V14.01,2013-04-23 05:57:00,
2013-04-23 01:02:00,58.2,49.2,30.02,SE,128,0.0,0.0,72,0.00,,OVC110,0.00,VWS V14.01,2013-04-23 06:02:00,
2013-04-23 01:07:00,58.1,49.1,30.02,SE,128,0.0,0.0,72,0.00,,OVC110,0.00,VWS V14.01,2013-04-23 06:07:00,
2013-04-23 01:12:00,57.9,48.9,30.02,SE,128,0.0,0.0,72,0.00,,OVC110,0.00,VWS V14.01,2013-04-23 06:12:00,
2013-04-23 01:17:00,57.6,49.0,30.02,SE,128,0.0,0.0,73,0.00,,OVC110,0.00,VWS V14.01,2013-04-23 06:17:00,
2013-04-23 01:22:00,57.4,48.8,30.01,SE,128,0.0,0.0,73,0.00,,OVC110,0.00,VWS V14.01,2013-04-23 06:22:00,
2013-04-23 01:27:00,57.1,48.5,30.01,SE,128,0.0,0.0,73,0.00,,OVC110,0.00,VWS V14.01,2013-04-23 06:27:00,
2013-04-23 01:32:00,56.9,48.3,30.00,SE,128,0.0,0.0,73,0.00,,OVC110,0.00,VWS V14.01,2013-04-23 06:32:00,
2013-04-23 01:37:00,56.7,48.5,30.00,SE,128,1.0,1.0,74,0.00,,OVC110,0.00,VWS V14.01,2013-04-23 06:37:00,
2013-04-23 01:42:00,56.6,48.4,30.00,SSE,151,0.0,0.0,74,0.00,,SCT120,0.00,VWS V14.01,2013-04-23 06:42:00,
2013-04-23 01:47:00,56.7,48.5,30.00,SSE,151,1.0,1.0,74,0.00,,SCT120,0.00,VWS V14.01,2013-04-23 06:47:00,
2013-04-23 01:52:00,56.8,48.2,30.00,SSE,151,0.0,0.0,73,0.00,,SCT120,0.00,VWS V14.01,2013-04-23 06:52:00,
2013-04-23 01:57:00,56.8,48.2,29.99,SSE,151,0.0,1.0,73,0.00,,SCT120,0.00,VWS V14.01,2013-04-23 06:57:00,
2013-04-23 02:02:00,56.7,48.2,29.99,SSE,151,0.0,0.0,73,0.00,,CLR,0.00,VWS V14.01,2013-04-23 07:02:00,
2013-04-23 02:07:00,56.5,48.0,29.99,SSE,151,0.0,0.0,73,0.00,,CLR,0.00,VWS V14.01,2013-04-23 07:07:00,
2013-04-23 02:12:00,56.3,47.8,30.00,SSE,151,0.0,1.0,73,0.00,,CLR,0.00,VWS V14.01,2013-04-23 07:12:00,
2013-04-23 02:17:00,56.0,47.5,29.99,SSE,151,0.0,1.0,73,0.00,,CLR,0.00,VWS V14.01,2013-04-23 07:17:00,
2013-04-23 02:22:00,55.9,47.4,29.99,SSE,151,0.0,0.0,73,0.00,,CLR,0.00,VWS V14.01,2013-04-23 07:22:00,
2013-04-23 02:27:00,55.7,47.5,30.00,SSE,151,0.0,0.0,74,0.00,,CLR,0.00,VWS V14.01,2013-04-23 07:27:00,
2013-04-23 02:32:00,55.5,47.4,30.00,SSE,151,0.0,0.0,74,0.00,,CLR,0.00,VWS V14.01,2013-04-23 07:32:00,
2013-04-23 02:37:00,55.4,47.6,30.00,SSE,151,0.0,1.0,75,0.00,,CLR,0.00,VWS V14.01,2013-04-23 07:37:00,
2013-04-23 02:42:00,55.2,47.4,30.00,SSE,151,0.0,0.0,75,0.00,,CLR,0.00,VWS V14.01,2013-04-23 07:42:00,
2013-04-23 02:47:00,55.1,47.3,30.00,SSE,151,0.0,0.0,75,0.00,,CLR,0.00,VWS V14.01,2013-04-23 07:47:00,
2013-04-23 02:52:00,55.0,47.2,30.00,SSE,151,0.0,0.0,75,0.00,,CLR,0.00,VWS V14.01,2013-04-23 07:52:00,
2013-04-23 02:57:00,55.0,47.2,30.00,SSE,151,0.0,0.0,75,0.00,,CLR,0.00,VWS V14.01,2013-04-23 07:57:00,
2013-04-23 03:02:00,54.9,47.1,30.00,SSE,151,0.0,0.0,75,0.00,,CLR,0.00,VWS V14.01,2013-04-23 08:02:00,
2013-04-23 03:07:00,54.8,47.0,29.99,SSE,151,0.0,1.0,75,0.00,,CLR,0.00,VWS V14.01,2013-04-23 08:07:00,
2013-04-23 03:12:00,54.8,47.0,29.99,SSE,151,0.0,0.0,75,0.00,,CLR,0.00,VWS V14.01,2013-04-23 08:12:00,
2013-04-23 03:17:00,54.8,47.4,29.98,SSE,151,0.0,4.0,76,0.00,,CLR,0.00,VWS V14.01,2013-04-23 08:17:00,
2013-04-23 03:22:00,54.8,47.0,29.99,SSE,151,0.0,1.0,75,0.00,,CLR,0.00,VWS V14.01,2013-04-23 08:22:00,
2013-04-23 03:27:00,54.8,47.0,29.98,SSE,151,0.0,1.0,75,0.00,,CLR,0.00,VWS V14.01,2013-04-23 08:27:00,
2013-04-23 03:32:00,54.8,47.0,29.99,SSE,151,0.0,0.0,75,0.00,,CLR,0.00,VWS V14.01,2013-04-23 08:32:00,
2013-04-23 03:37:00,54.8,47.0,29.99,SSE,151,0.0,0.0,75,0.00,,CLR,0.00,VWS V14.01,2013-04-23 08:37:00,
2013-04-23 03:42:00,54.7,46.9,29.99,SSE,151,0.0,0.0,75,0.00,,CLR,0.00,VWS V14.01,2013-04-23 08:42:00,
2013-04-23 03:47:00,54.6,46.8,30.00,SSE,151,0.0,0.0,75,0.00,,CLR,0.00,VWS V14.01,2013-04-23 08:47:00,
2013-04-23 03:52:00,54.4,46.7,30.00,SSE,151,0.0,0.0,75,0.00,,CLR,0.00,VWS V14.01,2013-04-23 08:52:00,
2013-04-23 03:57:00,54.2,46.8,30.00,SSE,151,0.0,1.0,76,0.00,,CLR,0.00,VWS V14.01,2013-04-23 08:57:00,
2013-04-23 04:02:00,54.0,46.6,29.99,SSE,151,0.0,0.0,76,0.00,,CLR,0.00,VWS V14.01,2013-04-23 09:02:00,
2013-04-23 04:07:00,53.9,46.5,30.00,SSE,151,0.0,1.0,76,0.00,,CLR,0.00,VWS V14.01,2013-04-23 09:07:00,
2013-04-23 04:12:00,53.8,46.4,29.99,SSE,151,0.0,0.0,76,0.00,,CLR,0.00,VWS V14.01,2013-04-23 09:12:00,
2013-04-23 04:17:00,53.7,46.7,29.99,SSE,151,0.0,1.0,77,0.00,,CLR,0.00,VWS V14.01,2013-04-23 09:17:00,
2013-04-23 04:22:00,53.7,46.7,29.99,SSE,151,0.0,0.0,77,0.00,,CLR,0.00,VWS V14.01,2013-04-23 09:22:00,
2013-04-23 04:27:00,53.6,46.6,30.00,SSE,151,0.0,0.0,77,0.00,,CLR,0.00,VWS V14.01,2013-04-23 09:27:00,
2013-04-23 04:32:00,53.6,46.6,29.99,SSE,151,0.0,2.0,77,0.00,,CLR,0.00,VWS V14.01,2013-04-23 09:32:00,
2013-04-23 04:37:00,53.5,46.5,29.99,SSE,151,0.0,2.0,77,0.00,,CLR,0.00,VWS V14.01,2013-04-23 09:37:00,
2013-04-23 04:42:00,53.4,46.7,29.99,SSE,151,0.0,0.0,78,0.00,,CLR,0.00,VWS V14.01,2013-04-23 09:42:00,
2013-04-23 04:47:00,53.3,46.6,29.98,SSE,151,0.0,1.0,78,0.00,,CLR,0.00,VWS V14.01,2013-04-23 09:47:00,
2013-04-23 04:52:00,53.4,46.7,29.97,SSE,151,0.0,0.0,78,0.00,,CLR,0.00,VWS V14.01,2013-04-23 09:52:00,
2013-04-23 04:57:00,53.3,46.6,29.97,SSE,151,0.0,1.0,78,0.00,,CLR,0.00,VWS V14.01,2013-04-23 09:57:00,
2013-04-23 05:02:00,53.2,46.5,29.96,SSE,151,0.0,0.0,78,0.00,,CLR,0.00,VWS V14.01,2013-04-23 10:02:00,
2013-04-23 05:07:00,53.1,46.4,29.96,SSE,151,0.0,1.0,78,0.00,,CLR,0.00,VWS V14.01,2013-04-23 10:07:00,
2013-04-23 05:12:00,53.0,46.7,29.96,SSE,151,0.0,0.0,79,0.00,,CLR,0.00,VWS V14.01,2013-04-23 10:12:00,
2013-04-23 05:17:00,53.0,46.7,29.96,SSE,151,0.0,0.0,79,0.00,,CLR,0.00,VWS V14.01,2013-04-23 10:17:00,
2013-04-23 05:22:00,53.1,46.8,29.96,SSE,151,0.0,0.0,79,0.00,,CLR,0.00,VWS V14.01,2013-04-23 10:22:00,
2013-04-23 05:27:00,53.1,46.8,29.96,SSE,151,0.0,0.0,79,0.00,,CLR,0.00,VWS V14.01,2013-04-23 10:27:00,
2013-04-23 05:32:00,53.1,46.8,29.96,SSE,151,0.0,0.0,79,0.00,,CLR,0.00,VWS V14.01,2013-04-23 10:32:00,
2013-04-23 05:38:00,53.2,46.9,29.96,SSE,151,0.0,0.0,79,0.00,,CLR,0.00,VWS V14.01,2013-04-23 10:38:00,
2013-04-23 05:43:00,53.3,47.0,29.96,SSE,151,0.0,1.0,79,0.00,,CLR,0.00,VWS V14.01,2013-04-23 10:43:00,
2013-04-23 05:48:00,53.6,47.3,29.96,SSE,151,0.0,1.0,79,0.00,,CLR,0.00,VWS V14.01,2013-04-23 10:48:00,
2013-04-23 05:53:00,53.8,47.5,29.95,South,171,0.0,2.0,79,0.00,,CLR,0.00,VWS V14.01,2013-04-23 10:53:00,
2013-04-23 05:58:00,54.4,47.7,29.95,SSE,162,0.0,2.0,78,0.00,,CLR,0.00,VWS V14.01,2013-04-23 10:58:00,
2013-04-23 06:03:00,54.9,47.8,29.95,South,182,0.0,5.0,77,0.00,,CLR,0.00,VWS V14.01,2013-04-23 11:03:00,
2013-04-23 06:08:00,55.3,48.2,29.95,SSW,197,0.0,5.0,77,0.00,,CLR,0.00,VWS V14.01,2013-04-23 11:08:00,
2013-04-23 06:13:00,55.7,48.3,29.96,South,184,0.0,6.0,76,0.00,,CLR,0.00,VWS V14.01,2013-04-23 11:13:00,
2013-04-23 06:18:00,56.1,48.3,29.96,SSE,160,0.0,6.0,75,0.00,,CLR,0.00,VWS V14.01,2013-04-23 11:18:00,
2013-04-23 06:23:00,56.3,48.5,29.96,South,177,0.0,4.0,75,0.00,,CLR,0.00,VWS V14.01,2013-04-23 11:23:00,
2013-04-23 06:28:00,56.4,48.2,29.96,South,171,0.0,5.0,74,0.00,,CLR,0.00,VWS V14.01,2013-04-23 11:28:00,
2013-04-23 06:33:00,56.4,48.2,29.97,South,188,0.0,1.0,74,0.00,,CLR,0.00,VWS V14.01,2013-04-23 11:33:00,
2013-04-23 06:38:00,56.4,48.6,29.97,South,188,0.0,3.0,75,0.00,,CLR,0.00,VWS V14.01,2013-04-23 11:38:00,
2013-04-23 06:43:00,56.4,48.6,29.97,South,173,1.0,6.0,75,0.00,,CLR,0.00,VWS V14.01,2013-04-23 11:43:00,
2013-04-23 06:48:00,56.6,48.8,29.97,SSE,162,0.0,6.0,75,0.00,,CLR,0.00,VWS V14.01,2013-04-23 11:48:00,
2013-04-23 06:53:00,56.7,48.5,29.97,South,173,4.0,6.0,74,0.00,,SCT110,0.00,VWS V14.01,2013-04-23 11:53:00,
2013-04-23 06:58:00,56.8,48.6,29.97,South,173,0.0,6.0,74,0.00,,SCT110,0.00,VWS V14.01,2013-04-23 11:58:00,
2013-04-23 07:03:00,56.9,48.7,29.96,SSW,198,0.0,5.0,74,0.00,,SCT110,0.00,VWS V14.01,2013-04-23 12:03:00,
2013-04-23 07:08:00,56.8,48.6,29.96,South,175,5.0,5.0,74,0.00,,SCT110,0.00,VWS V14.01,2013-04-23 12:08:00,
2013-04-23 07:13:00,56.7,48.9,29.96,South,184,0.0,2.0,75,0.00,,SCT110,0.00,VWS V14.01,2013-04-23 12:13:00,
2013-04-23 07:18:00,56.6,48.8,29.96,SSE,161,0.0,5.0,75,0.00,,SCT110,0.00,VWS V14.01,2013-04-23 12:18:00,
2013-04-23 07:23:00,56.6,48.8,29.96,SSE,161,0.0,2.0,75,0.00,,SCT110,0.00,VWS V14.01,2013-04-23 12:23:00,
2013-04-23 07:28:00,56.6,48.8,29.96,SSE,159,1.0,5.0,75,0.00,,SCT110,0.00,VWS V14.01,2013-04-23 12:28:00,
2013-04-23 07:33:00,56.7,48.9,29.96,SSE,157,0.0,4.0,75,0.00,,SCT110,0.00,VWS V14.01,2013-04-23 12:33:00,
2013-04-23 07:38:00,56.8,49.3,29.96,SSE,163,2.0,6.0,76,0.00,,SCT110,0.00,VWS V14.01,2013-04-23 12:38:00,
2013-04-23 07:43:00,56.9,49.1,29.96,South,182,0.0,7.0,75,0.00,,CLR,0.00,VWS V14.01,2013-04-23 12:43:00,
2013-04-23 07:48:00,57.2,49.4,29.96,South,184,0.0,7.0,75,0.00,,CLR,0.00,VWS V14.01,2013-04-23 12:48:00,
2013-04-23 07:53:00,57.4,49.5,29.97,South,191,2.0,3.0,75,0.00,,CLR,0.00,VWS V14.01,2013-04-23 12:53:00,
2013-04-23 07:58:00,57.7,49.5,29.97,SSE,163,0.0,7.0,74,0.00,,CLR,0.00,VWS V14.01,2013-04-23 12:58:00,
2013-04-23 08:03:00,57.9,49.7,29.97,SSW,196,2.0,6.0,74,0.00,,CLR,0.00,VWS V14.01,2013-04-23 13:03:00,
2013-04-23 08:08:00,58.1,49.9,29.97,South,173,2.0,7.0,74,0.00,,CLR,0.00,VWS V14.01,2013-04-23 13:08:00,
2013-04-23 08:13:00,58.3,50.1,29.96,SSE,147,1.0,5.0,74,0.00,,CLR,0.00,VWS V14.01,2013-04-23 13:13:00,
2013-04-23 08:18:00,58.6,50.0,29.97,SSW,196,2.0,7.0,73,0.00,,CLR,0.00,VWS V14.01,2013-04-23 13:18:00,
2013-04-23 08:23:00,58.9,50.3,29.96,South,185,4.0,7.0,73,0.00,,CLR,0.00,VWS V14.01,2013-04-23 13:23:00,
2013-04-23 08:28:00,59.1,50.5,29.97,South,187,0.0,9.0,73,0.00,,CLR,0.00,VWS V14.01,2013-04-23 13:28:00,
2013-04-23 08:33:00,59.1,50.5,29.96,South,189,0.0,4.0,73,0.00,,CLR,0.00,VWS V14.01,2013-04-23 13:33:00,
2013-04-23 08:38:00,59.1,50.5,29.97,SSW,193,5.0,8.0,73,0.00,,CLR,0.00,VWS V14.01,2013-04-23 13:38:00,
2013-04-23 08:43:00,59.0,51.5,29.97,South,190,2.0,4.0,76,0.00,,SCT110,0.00,VWS V14.01,2013-04-23 13:43:00,
2013-04-23 08:48:00,58.8,50.5,29.97,SSW,200,1.0,7.0,74,0.00,,SCT110,0.00,VWS V14.01,2013-04-23 13:48:00,
2013-04-23 08:53:00,58.7,50.8,29.98,SSW,200,2.0,6.0,75,0.00,,SCT110,0.00,VWS V14.01,2013-04-23 13:53:00,
2013-04-23 08:58:00,58.6,51.1,29.98,South,188,0.0,7.0,76,0.00,,SCT110,0.00,VWS V14.01,2013-04-23 13:58:00,
2013-04-23 09:03:00,58.5,51.0,29.98,South,183,2.0,5.0,76,0.00,,-RA,0.00,VWS V14.01,2013-04-23 14:03:00,
2013-04-23 09:08:00,58.4,51.2,29.98,South,184,1.0,5.0,77,0.00,,-RA,0.00,VWS V14.01,2013-04-23 14:08:00,
2013-04-23 09:13:00,58.3,51.1,29.98,South,184,0.0,4.0,77,0.00,,-RA,0.00,VWS V14.01,2013-04-23 14:13:00,
2013-04-23 09:18:00,58.3,51.5,29.98,SSW,193,0.0,7.0,78,0.00,,-RA,0.00,VWS V14.01,2013-04-23 14:18:00,
2013-04-23 09:23:00,58.4,51.6,29.98,South,184,0.0,6.0,78,0.00,,-RA,0.00,VWS V14.01,2013-04-23 14:23:00,
2013-04-23 09:28:00,58.4,51.6,29.98,South,183,3.0,6.0,78,0.01,,-RA,0.01,VWS V14.01,2013-04-23 14:28:00,
2013-04-23 09:33:00,58.4,51.6,29.98,South,179,0.0,1.0,78,0.01,,-RA,0.01,VWS V14.01,2013-04-23 14:33:00,
2013-04-23 09:38:00,58.5,52.0,29.98,South,179,0.0,2.0,79,0.01,,-RA,0.01,VWS V14.01,2013-04-23 14:38:00,
2013-04-23 09:43:00,58.6,52.1,29.98,South,177,0.0,5.0,79,0.01,,-RA,0.01,VWS V14.01,2013-04-23 14:43:00,
2013-04-23 09:48:00,58.6,52.1,29.98,South,177,1.0,5.0,79,0.01,,-RA,0.01,VWS V14.01,2013-04-23 14:48:00,
2013-04-23 09:53:00,58.7,52.2,29.98,South,177,0.0,0.0,79,0.01,,-RA,0.01,VWS V14.01,2013-04-23 14:53:00,
2013-04-23 09:58:00,58.9,52.4,29.98,South,177,0.0,1.0,79,0.01,,-RA,0.01,VWS V14.01,2013-04-23 14:58:00,
2013-04-23 10:03:00,59.0,52.5,29.98,South,177,0.0,2.0,79,0.01,,-RA,0.01,VWS V14.01,2013-04-23 15:03:00,
2013-04-23 10:08:00,59.1,52.6,29.99,South,177,0.0,5.0,79,0.01,,-RA,0.01,VWS V14.01,2013-04-23 15:08:00,
2013-04-23 10:13:00,59.3,52.8,30.00,South,177,0.0,5.0,79,0.01,,-RA,0.01,VWS V14.01,2013-04-23 15:13:00,
2013-04-23 10:18:00,59.4,52.9,30.00,South,176,0.0,6.0,79,0.01,,-RA,0.01,VWS V14.01,2013-04-23 15:18:00,
2013-04-23 10:23:00,59.4,52.9,30.00,SSW,196,1.0,3.0,79,0.01,,-RA,0.01,VWS V14.01,2013-04-23 15:23:00,
2013-04-23 10:28:00,59.4,52.9,30.00,SW,224,2.0,5.0,79,0.01,,-RA,0.01,VWS V14.01,2013-04-23 15:28:00,
2013-04-23 10:33:00,59.2,52.7,30.00,WSW,237,2.0,3.0,79,0.00,,-RA,0.01,VWS V14.01,2013-04-23 15:33:00,
2013-04-23 10:38:00,59.0,52.8,30.00,WSW,254,0.0,7.0,80,0.01,,-RA,0.02,VWS V14.01,2013-04-23 15:38:00,
2013-04-23 10:43:00,58.7,52.6,30.01,SW,226,2.0,4.0,80,0.01,,BKN085,0.02,VWS V14.01,2013-04-23 15:43:00,
2013-04-23 10:48:00,58.5,52.4,30.01,SW,231,0.0,4.0,80,0.04,,BKN085,0.05,VWS V14.01,2013-04-23 15:48:00,
2013-04-23 10:53:00,58.1,52.3,30.02,WSW,254,1.0,5.0,81,0.05,,BKN085,0.06,VWS V14.01,2013-04-23 15:53:00,
2013-04-23 10:58:00,57.8,52.0,30.01,West,260,0.0,5.0,81,0.06,,BKN085,0.07,VWS V14.01,2013-04-23 15:58:00,
2013-04-23 11:03:00,57.7,52.2,30.02,WSW,256,2.0,2.0,82,0.06,,-RA,0.07,VWS V14.01,2013-04-23 16:03:00,
2013-04-23 11:08:00,57.5,52.1,30.02,SSW,213,0.0,3.0,82,0.07,,-RA,0.08,VWS V14.01,2013-04-23 16:08:00,
2013-04-23 11:13:00,57.3,51.9,30.01,SSW,213,0.0,1.0,82,0.08,,-RA,0.09,VWS V14.01,2013-04-23 16:13:00,
2013-04-23 11:18:00,57.3,51.9,30.00,South,174,0.0,5.0,82,0.09,,-RA,0.10,VWS V14.01,2013-04-23 16:18:00,
2013-04-23 11:23:00,57.3,51.9,29.98,South,174,0.0,0.0,82,0.10,,-RA,0.11,VWS V14.01,2013-04-23 16:23:00,
2013-04-23 11:28:00,57.5,52.1,29.97,South,174,0.0,0.0,82,0.10,,-RA,0.11,VWS V14.01,2013-04-23 16:28:00,
2013-04-23 11:33:00,57.7,52.2,29.97,South,174,0.0,0.0,82,0.10,,-RA,0.11,VWS V14.01,2013-04-23 16:33:00,
2013-04-23 11:38:00,58.0,52.5,29.96,South,174,0.0,0.0,82,0.10,,-RA,0.11,VWS V14.01,2013-04-23 16:38:00,
2013-04-23 11:43:00,57.8,52.3,29.96,South,174,0.0,0.0,82,0.09,,RA,0.11,VWS V14.01,2013-04-23 16:43:00,
2013-04-23 11:48:00,57.9,52.5,29.95,South,174,0.0,1.0,82,0.09,,RA,0.11,VWS V14.01,2013-04-23 16:48:00,
2013-04-23 11:53:00,58.1,52.6,29.94,SE,127,0.0,4.0,82,0.05,,RA,0.11,VWS V14.01,2013-04-23 16:53:00,
2013-04-23 11:58:00,58.1,52.6,29.94,SE,127,4.0,4.0,82,0.05,,RA,0.11,VWS V14.01,2013-04-23 16:58:00,
2013-04-23 12:03:00,58.2,52.7,29.94,SE,127,0.0,4.0,82,0.04,,-RA,0.11,VWS V14.01,2013-04-23 17:03:00,
2013-04-23 12:08:00,58.5,53.0,29.94,SE,128,0.0,4.0,82,0.04,,-RA,0.11,VWS V14.01,2013-04-23 17:08:00,
2013-04-23 12:13:00,58.7,53.2,29.93,SE,127,1.0,1.0,82,0.02,,-RA,0.11,VWS V14.01,2013-04-23 17:13:00,
2013-04-23 12:18:00,58.7,53.2,29.93,SE,127,0.0,4.0,82,0.02,,-RA,0.11,VWS V14.01,2013-04-23 17:18:00,
2013-04-23 12:23:00,59.1,53.6,29.93,SSE,147,1.0,8.0,82,0.01,,-RA,0.11,VWS V14.01,2013-04-23 17:23:00,
2013-04-23 12:28:00,59.2,53.7,29.93,South,191,2.0,8.0,82,0.01,,-RA,0.11,VWS V14.01,2013-04-23 17:28:00,
2013-04-23 12:33:00,59.3,53.8,29.93,SSW,194,2.0,6.0,82,0.00,,-RA,0.11,VWS V14.01,2013-04-23 17:33:00,
2013-04-23 12:38:00,59.3,53.8,29.93,SSE,164,2.0,6.0,82,0.00,,-RA,0.11,VWS V14.01,2013-04-23 17:38:00,
2013-04-23 12:43:00,59.5,54.0,29.93,SE,146,0.0,5.0,82,0.00,,BKN100,0.11,VWS V14.01,2013-04-23 17:43:00,
2013-04-23 12:48:00,59.6,54.1,29.93,SSE,160,0.0,5.0,82,0.00,,BKN100,0.11,VWS V14.01,2013-04-23 17:48:00,
2013-04-23 12:53:00,59.7,54.2,29.92,SSE,160,0.0,0.0,82,0.00,,BKN100,0.11,VWS V14.01,2013-04-23 17:53:00,
2013-04-23 12:58:00,60.0,54.5,29.92,SSE,160,0.0,2.0,82,0.00,,BKN100,0.11,VWS V14.01,2013-04-23 17:58:00,
2013-04-23 13:04:00,60.1,54.6,29.92,South,173,1.0,5.0,82,0.00,,SCT090,0.11,VWS V14.01,2013-04-23 18:04:00,
2013-04-23 13:09:00,60.2,54.7,29.90,SE,142,0.0,7.0,82,0.00,,SCT090,0.11,VWS V14.01,2013-04-23 18:09:00,
2013-04-23 13:14:00,60.3,54.8,29.90,SE,127,6.0,6.0,82,0.00,,SCT090,0.11,VWS V14.01,2013-04-23 18:14:00,
2013-04-23 13:19:00,60.3,54.8,29.91,South,184,3.0,6.0,82,0.00,,SCT090,0.11,VWS V14.01,2013-04-23 18:19:00,
2013-04-23 13:24:00,60.3,54.8,29.90,South,175,0.0,2.0,82,0.00,,,0.11,VWS V14.01,2013-04-23 18:24:00,
2013-04-23 13:29:00,60.4,54.9,29.90,SSE,161,0.0,6.0,82,0.00,,,0.11,VWS V14.01,2013-04-23 18:29:00,
2013-04-23 13:34:00,60.4,54.9,29.90,SSE,163,0.0,7.0,82,0.00,,SCT090,0.11,VWS V14.01,2013-04-23 18:34:00,
2013-04-23 13:39:00,60.5,55.0,29.90,South,173,2.0,9.0,82,0.00,,SCT090,0.11,VWS V14.01,2013-04-23 18:39:00,
2013-04-23 13:44:00,60.5,55.0,29.91,SSW,192,0.0,5.0,82,0.00,,OVC023,0.11,VWS V14.01,2013-04-23 18:44:00,
2013-04-23 13:49:00,60.5,55.0,29.90,South,169,0.0,7.0,82,0.00,,OVC023,0.11,VWS V14.01,2013-04-23 18:49:00,
2013-04-23 13:54:00,60.5,55.0,29.90,South,169,0.0,0.0,82,0.00,,OVC023,0.11,VWS V14.01,2013-04-23 18:54:00,
2013-04-23 13:59:00,60.5,55.0,29.90,South,169,0.0,1.0,82,0.01,,OVC023,0.12,VWS V14.01,2013-04-23 18:59:00,
2013-04-23 14:04:00,60.6,55.1,29.90,South,169,0.0,2.0,82,0.01,,OVC018,0.12,VWS V14.01,2013-04-23 19:04:00,
2013-04-23 14:09:00,60.5,55.0,29.90,South,169,0.0,4.0,82,0.01,,OVC018,0.12,VWS V14.01,2013-04-23 19:09:00,
2013-04-23 14:14:00,60.6,55.1,29.89,South,169,0.0,1.0,82,0.01,,OVC018,0.12,VWS V14.01,2013-04-23 19:14:00,
2013-04-23 14:19:00,60.7,55.2,29.89,SSE,165,0.0,1.0,82,0.01,,OVC018,0.12,VWS V14.01,2013-04-23 19:19:00,
2013-04-23 14:24:00,60.8,55.3,29.89,SSE,165,5.0,5.0,82,0.01,,OVC018,0.12,VWS V14.01,2013-04-23 19:24:00,
2013-04-23 14:29:00,60.9,55.4,29.88,SE,132,0.0,5.0,82,0.01,,OVC018,0.12,VWS V14.01,2013-04-23 19:29:00,
2013-04-23 14:34:00,61.1,55.6,29.88,ESE,117,0.0,4.0,82,0.01,,OVC018,0.12,VWS V14.01,2013-04-23 19:34:00,
2013-04-23 14:39:00,61.1,55.6,29.88,SE,128,1.0,5.0,82,0.01,,OVC018,0.12,VWS V14.01,2013-04-23 19:39:00,
2013-04-23 14:44:00,61.1,55.6,29.88,SE,146,0.0,1.0,82,0.01,,OVC031,0.12,VWS V14.01,2013-04-23 19:44:00,
2013-04-23 14:49:00,61.1,55.6,29.87,SE,146,0.0,5.0,82,0.01,,OVC031,0.12,VWS V14.01,2013-04-23 19:49:00,
2013-04-23 14:54:00,61.2,55.7,29.87,SSE,157,0.0,2.0,82,0.01,,OVC031,0.12,VWS V14.01,2013-04-23 19:54:00,
2013-04-23 14:59:00,61.3,55.8,29.86,SSW,196,2.0,6.0,82,0.01,,OVC031,0.12,VWS V14.01,2013-04-23 19:59:00,
2013-04-23 15:04:00,61.3,55.8,29.86,SSW,197,0.0,1.0,82,0.00,,OVC023,0.12,VWS V14.01,2013-04-23 20:04:00,
2013-04-23 15:09:00,61.4,55.9,29.86,SSW,197,0.0,3.0,82,0.00,,OVC023,0.12,VWS V14.01,2013-04-23 20:09:00,
2013-04-23 15:14:00,61.3,55.8,29.86,SSW,196,2.0,4.0,82,0.00,,OVC023,0.12,VWS V14.01,2013-04-23 20:14:00,
2013-04-23 15:19:00,61.3,55.8,29.85,SSW,196,0.0,4.0,82,0.00,,OVC023,0.12,VWS V14.01,2013-04-23 20:19:00,
2013-04-23 15:24:00,61.3,55.8,29.85,SSW,196,0.0,0.0,82,0.01,,OVC023,0.13,VWS V14.01,2013-04-23 20:24:00,
2013-04-23 15:29:00,61.2,55.7,29.85,SSW,196,0.0,0.0,82,0.05,,OVC023,0.17,VWS V14.01,2013-04-23 20:29:00,
2013-04-23 15:34:00,61.1,55.6,29.84,SSW,196,0.0,0.0,82,0.06,,OVC023,0.18,VWS V14.01,2013-04-23 20:34:00,
2013-04-23 15:39:00,61.1,55.6,29.84,SSW,196,0.0,0.0,82,0.09,,OVC023,0.21,VWS V14.01,2013-04-23 20:39:00,
2013-04-23 15:44:00,61.1,55.6,29.84,SSW,196,0.0,0.0,82,0.11,,-RA,0.23,VWS V14.01,2013-04-23 20:44:00,
2013-04-23 15:49:00,61.1,55.6,29.83,SSW,196,0.0,0.0,82,0.12,,-RA,0.24,VWS V14.01,2013-04-23 20:49:00,
2013-04-23 15:54:00,60.9,55.4,29.84,SSW,196,0.0,0.0,82,0.13,,-RA,0.25,VWS V14.01,2013-04-23 20:54:00,
2013-04-23 15:59:00,60.9,55.4,29.83,SSE,166,1.0,1.0,82,0.13,,-RA,0.25,VWS V14.01,2013-04-23 20:59:00,
2013-04-23 16:04:00,60.7,55.2,29.82,ESE,114,0.0,0.0,82,0.13,,-RA,0.25,VWS V14.01,2013-04-23 21:04:00,
2013-04-23 16:09:00,60.7,55.2,29.82,SE,130,1.0,2.0,82,0.13,,-RA,0.25,VWS V14.01,2013-04-23 21:09:00,
2013-04-23 16:14:00,60.7,55.2,29.82,SE,130,0.0,0.0,82,0.14,,-RA,0.26,VWS V14.01,2013-04-23 21:14:00,
2013-04-23 16:19:00,60.7,55.2,29.82,SE,130,0.0,1.0,82,0.14,,-RA,0.26,VWS V14.01,2013-04-23 21:19:00,
2013-04-23 16:24:00,60.6,55.1,29.82,SE,130,0.0,0.0,82,0.13,, +RA,0.26,VWS V14.01,2013-04-23 21:24:00,
2013-04-23 16:29:00,60.6,55.1,29.82,SE,130,0.0,0.0,82,0.14,, +RA,0.27,VWS V14.01,2013-04-23 21:29:00,
2013-04-23 16:34:00,60.6,55.1,29.82,SE,130,0.0,0.0,82,0.10,, +RA,0.28,VWS V14.01,2013-04-23 21:34:00,
2013-04-23 16:39:00,60.6,55.1,29.81,SE,130,0.0,1.0,82,0.10,, +RA,0.28,VWS V14.01,2013-04-23 21:39:00,
2013-04-23 16:44:00,60.6,55.1,29.82,SE,130,0.0,1.0,82,0.06,,-RA,0.28,VWS V14.01,2013-04-23 21:44:00,
2013-04-23 16:49:00,60.7,55.2,29.82,SE,130,0.0,4.0,82,0.07,,-RA,0.29,VWS V14.01,2013-04-23 21:49:00,
2013-04-23 16:54:00,60.8,55.3,29.82,WSW,244,1.0,3.0,82,0.05,,-RA,0.29,VWS V14.01,2013-04-23 21:54:00,
2013-04-23 16:59:00,60.9,55.4,29.82,WSW,244,0.0,3.0,82,0.05,,-RA,0.29,VWS V14.01,2013-04-23 21:59:00,
2013-04-23 17:04:00,60.8,55.3,29.82,WSW,244,0.0,1.0,82,0.06,, +RA,0.31,VWS V14.01,2013-04-23 22:04:00,
2013-04-23 17:09:00,60.8,55.6,29.82,WSW,244,2.0,2.0,83,0.07,, +RA,0.32,VWS V14.01,2013-04-23 22:09:00,
2013-04-23 17:14:00,60.8,55.6,29.81,WSW,244,1.0,2.0,83,0.06,, +RA,0.32,VWS V14.01,2013-04-23 22:14:00,
2013-04-23 17:19:00,60.7,55.5,29.81,WSW,244,0.0,2.0,83,0.07,, +RA,0.33,VWS V14.01,2013-04-23 22:19:00,
2013-04-23 17:24:00,60.7,55.5,29.81,WSW,244,0.0,0.0,83,0.07,, +RA,0.33,VWS V14.01,2013-04-23 22:24:00,
2013-04-23 17:29:00,60.7,55.5,29.80,WSW,244,0.0,0.0,83,0.07,, +RA,0.33,VWS V14.01,2013-04-23 22:29:00,
2013-04-23 17:34:00,60.7,55.5,29.80,WSW,244,0.0,0.0,83,0.07,, +RA,0.34,VWS V14.01,2013-04-23 22:34:00,
2013-04-23 17:39:00,60.7,55.5,29.80,WSW,244,0.0,0.0,83,0.08,, +RA,0.35,VWS V14.01,2013-04-23 22:39:00,
2013-04-23 17:44:00,60.7,55.5,29.80,WSW,244,0.0,0.0,83,0.07,,RA,0.35,VWS V14.01,2013-04-23 22:44:00,
2013-04-23 17:49:00,60.6,55.4,29.80,WSW,244,0.0,0.0,83,0.07,,RA,0.35,VWS V14.01,2013-04-23 22:49:00,
2013-04-23 17:54:00,60.6,55.4,29.80,WSW,244,0.0,0.0,83,0.06,,RA,0.35,VWS V14.01,2013-04-23 22:54:00,
2013-04-23 17:59:00,60.5,55.3,29.79,WSW,244,0.0,0.0,83,0.06,,RA,0.35,VWS V14.01,2013-04-23 22:59:00,
2013-04-23 18:04:00,60.5,55.3,29.79,WSW,244,0.0,0.0,83,0.06,,OVC015,0.35,VWS V14.01,2013-04-23 23:04:00,
2013-04-23 18:09:00,60.5,55.3,29.79,WSW,244,0.0,0.0,83,0.06,,OVC015,0.35,VWS V14.01,2013-04-23 23:09:00,
2013-04-23 18:14:00,60.4,55.2,29.80,WSW,244,0.0,0.0,83,0.03,,OVC015,0.35,VWS V14.01,2013-04-23 23:14:00,
2013-04-23 18:19:00,60.4,55.2,29.81,WSW,244,0.0,0.0,83,0.03,,OVC015,0.35,VWS V14.01,2013-04-23 23:19:00,
2013-04-23 18:24:00,60.4,55.2,29.80,WSW,244,0.0,1.0,83,0.04,,OVC015,0.37,VWS V14.01,2013-04-23 23:24:00,
2013-04-23 18:29:00,60.2,55.0,29.80,WSW,244,1.0,2.0,83,0.06,,OVC015,0.39,VWS V14.01,2013-04-23 23:29:00,
2013-04-23 18:34:00,59.9,54.7,29.80,WNW,288,1.0,3.0,83,0.08,,OVC015,0.42,VWS V14.01,2013-04-23 23:34:00,
2013-04-23 18:39:00,59.7,54.5,29.80,North,360,0.0,4.0,83,0.11,,OVC015,0.45,VWS V14.01,2013-04-23 23:39:00,
2013-04-23 18:44:00,59.2,54.0,29.80,NNW,342,4.0,4.0,83,0.13,,RA,0.48,VWS V14.01,2013-04-23 23:44:00,
2013-04-23 18:49:00,56.8,51.4,29.81,NNW,342,2.0,7.0,82,0.13,,RA,0.48,VWS V14.01,2013-04-23 23:49:00,
2013-04-23 18:54:00,54.5,49.1,29.82,NW,313,5.0,5.0,82,0.14,,RA,0.49,VWS V14.01,2013-04-23 23:54:00,
2013-04-23 18:59:00,53.2,48.2,29.84,NW,315,0.0,9.0,83,0.15,,RA,0.50,VWS V14.01,2013-04-23 23:59:00,
2013-04-23 19:04:00,52.3,47.3,29.83,North,355,3.0,9.0,83,0.15,,OVC011,0.50,VWS V14.01,2013-04-24 00:04:00,
2013-04-23 19:09:00,51.5,46.5,29.82,North,9,1.0,9.0,83,0.15,,OVC011,0.50,VWS V14.01,2013-04-24 00:09:00,
2013-04-23 19:14:00,50.6,45.6,29.83,WNW,300,3.0,6.0,83,0.15,,OVC011,0.50,VWS V14.01,2013-04-24 00:14:00,
2013-04-23 19:19:00,50.0,45.0,29.83,North,349,3.0,6.0,83,0.15,,OVC011,0.50,VWS V14.01,2013-04-24 00:19:00,
2013-04-23 19:24:00,49.5,44.6,29.83,North,360,5.0,7.0,83,0.15,,OVC006,0.51,VWS V14.01,2013-04-24 00:24:00,
2013-04-23 19:29:00,48.8,43.9,29.86,North,360,4.0,8.0,83,0.15,,OVC006,0.51,VWS V14.01,2013-04-24 00:29:00,
2013-04-23 19:34:00,48.1,43.2,29.85,NNW,346,1.0,6.0,83,0.12,,OVC006,0.52,VWS V14.01,2013-04-24 00:34:00,
2013-04-23 19:39:00,47.7,42.8,29.85,NNW,336,0.0,6.0,83,0.12,,OVC006,0.52,VWS V14.01,2013-04-24 00:39:00,
2013-04-23 19:44:00,47.6,42.7,29.85,North,5,4.0,5.0,83,0.06,,OVC004,0.52,VWS V14.01,2013-04-24 00:44:00,
2013-04-23 19:49:00,47.4,42.5,29.86,NW,313,0.0,6.0,83,0.07,,OVC004,0.53,VWS V14.01,2013-04-24 00:49:00,
2013-04-23 19:54:00,47.1,42.2,29.86,NW,321,3.0,8.0,83,0.04,,OVC004,0.53,VWS V14.01,2013-04-24 00:54:00,
2013-04-23 19:59:00,46.7,41.8,29.85,North,355,7.0,8.0,83,0.04,,OVC004,0.53,VWS V14.01,2013-04-24 00:59:00,
2013-04-23 20:04:00,46.0,41.1,29.85,North,351,0.0,7.0,83,0.03,,OVC017,0.53,VWS V14.01,2013-04-24 01:04:00,
2013-04-23 20:09:00,45.7,40.8,29.87,NNW,347,3.0,7.0,83,0.04,,OVC017,0.54,VWS V14.01,2013-04-24 01:09:00,
2013-04-23 20:14:00,45.6,40.7,29.88,NW,306,6.0,6.0,83,0.08,,OVC017,0.58,VWS V14.01,2013-04-24 01:14:00,
2013-04-23 20:19:00,45.4,40.5,29.87,North,355,1.0,7.0,83,0.13,,OVC017,0.63,VWS V14.01,2013-04-24 01:19:00,
2013-04-23 20:24:00,45.4,40.5,29.92,NW,309,3.0,7.0,83,0.14,,OVC017,0.65,VWS V14.01,2013-04-24 01:24:00,
2013-04-23 20:29:00,45.2,40.3,29.91,NW,316,6.0,7.0,83,0.16,,OVC017,0.67,VWS V14.01,2013-04-24 01:29:00,
2013-04-23 20:34:00,45.0,40.5,29.91,NW,313,4.0,6.0,84,0.17,,OVC017,0.68,VWS V14.01,2013-04-24 01:34:00,
2013-04-23 20:39:00,44.9,40.4,29.90,North,360,3.0,6.0,84,0.18,,OVC017,0.69,VWS V14.01,2013-04-24 01:39:00,
2013-04-23 20:44:00,44.9,40.4,29.89,North,355,2.0,6.0,84,0.18,, +RA,0.70,VWS V14.01,2013-04-24 01:44:00,
2013-04-23 20:49:00,44.8,40.3,29.90,North,355,3.0,6.0,84,0.18,, +RA,0.70,VWS V14.01,2013-04-24 01:49:00,
2013-04-23 20:54:00,44.8,40.3,29.89,North,355,1.0,3.0,84,0.17,, +RA,0.70,VWS V14.01,2013-04-24 01:54:00,
2013-04-23 20:59:00,44.8,40.3,29.91,NNW,329,3.0,3.0,84,0.17,, +RA,0.70,VWS V14.01,2013-04-24 01:59:00,
2013-04-23 21:04:00,44.8,40.3,29.90,North,5,5.0,7.0,84,0.17,,-RA,0.70,VWS V14.01,2013-04-24 02:04:00,
2013-04-23 21:09:00,44.8,40.3,29.91,NNW,345,0.0,7.0,84,0.17,,-RA,0.70,VWS V14.01,2013-04-24 02:09:00,
2013-04-23 21:14:00,44.5,40.0,29.90,North,355,2.0,8.0,84,0.16,,-RA,0.70,VWS V14.01,2013-04-24 02:14:00,
2013-04-23 21:19:00,44.2,39.7,29.90,NNW,344,4.0,8.0,84,0.16,,-RA,0.70,VWS V14.01,2013-04-24 02:19:00,
2013-04-23 21:24:00,44.2,39.7,29.91,North,355,2.0,9.0,84,0.06,,-RA,0.70,VWS V14.01,2013-04-24 02:24:00,
2013-04-23 21:29:00,44.2,39.7,29.92,North,350,0.0,9.0,84,0.06,,-RA,0.70,VWS V14.01,2013-04-24 02:29:00,
2013-04-23 21:40:00,44.3,39.8,29.91,North,350,4.0,5.0,84,0.04,,-RA,0.71,VWS V14.01,2013-04-24 02:40:00,
2013-04-23 21:45:00,44.3,39.8,29.93,WNW,286,3.0,8.0,84,0.02,,-RA,0.71,VWS V14.01,2013-04-24 02:45:00,
2013-04-23 21:50:00,44.3,39.8,29.92,NNW,348,0.0,8.0,84,0.02,,-RA,0.71,VWS V14.01,2013-04-24 02:50:00,
2013-04-23 22:00:00,44.3,39.8,29.92,NNW,345,0.0,3.0,84,0.03,,-RA,0.73,VWS V14.01,2013-04-24 03:00:00,
2013-04-23 22:05:00,44.2,39.7,29.93,NNW,343,0.0,5.0,84,0.03,,OVC033,0.73,VWS V14.01,2013-04-24 03:05:00,
2013-04-23 22:10:00,44.1,39.6,29.93,NNW,329,0.0,5.0,84,0.05,,OVC033,0.75,VWS V14.01,2013-04-24 03:10:00,
2013-04-23 22:15:00,44.0,39.5,29.93,NW,324,1.0,4.0,84,0.05,,OVC033,0.75,VWS V14.01,2013-04-24 03:15:00,
2013-04-23 22:20:00,44.0,39.5,29.93,NW,315,0.0,4.0,84,0.05,,OVC033,0.75,VWS V14.01,2013-04-24 03:20:00,
2013-04-23 22:25:00,44.0,39.5,29.93,NW,315,1.0,2.0,84,0.06,,OVC033,0.76,VWS V14.01,2013-04-24 03:25:00,
2013-04-23 22:30:00,43.8,39.3,29.93,NW,319,1.0,3.0,84,0.06,,OVC033,0.76,VWS V14.01,2013-04-24 03:30:00,
2013-04-23 22:35:00,43.8,39.3,29.94,WNW,294,0.0,6.0,84,0.07,,OVC033,0.77,VWS V14.01,2013-04-24 03:35:00,
2013-04-23 22:40:00,43.8,39.3,29.94,NW,326,2.0,6.0,84,0.08,,OVC033,0.78,VWS V14.01,2013-04-24 03:40:00,
2013-04-23 22:45:00,43.7,39.2,29.92,North,355,3.0,5.0,84,0.08,,-RA,0.79,VWS V14.01,2013-04-24 03:45:00,
2013-04-23 22:51:00,43.5,39.0,29.92,North,350,0.0,6.0,84,0.08,,-RA,0.79,VWS V14.01,2013-04-24 03:51:00,
2013-04-23 23:00:00,43.4,38.9,29.93,WNW,295,2.0,4.0,84,0.09,,-RA,0.80,VWS V14.01,2013-04-24 04:00:00,
2013-04-23 23:01:00,43.3,38.8,29.92,WNW,295,0.0,4.0,84,0.09,,RA,0.80,VWS V14.01,2013-04-24 04:01:00,
2013-04-23 23:05:00,43.3,38.8,29.92,WNW,296,0.0,2.0,84,0.07,,RA,0.80,VWS V14.01,2013-04-24 04:05:00,
2013-04-23 23:10:00,43.3,38.8,29.94,NNW,327,0.0,4.0,84,0.07,,RA,0.80,VWS V14.01,2013-04-24 04:10:00,
2013-04-23 23:11:00,43.3,38.8,29.93,NNW,328,1.0,4.0,84,0.07,,RA,0.80,VWS V14.01,2013-04-24 04:11:00,
2013-04-23 23:15:00,43.4,38.9,29.94,NW,315,0.0,3.0,84,0.05,,RA,0.80,VWS V14.01,2013-04-24 04:15:00,
2013-04-23 23:20:00,43.3,38.8,29.95,NW,313,0.0,4.0,84,0.06,,RA,0.81,VWS V14.01,2013-04-24 04:20:00,
2013-04-23 23:25:00,43.3,38.8,29.94,North,360,4.0,6.0,84,0.07,,RA,0.83,VWS V14.01,2013-04-24 04:25:00,
2013-04-23 23:30:00,43.3,38.8,29.93,NW,325,0.0,6.0,84,0.08,,RA,0.84,VWS V14.01,2013-04-24 04:30:00,
2013-04-23 23:35:00,43.4,38.9,29.93,West,277,0.0,1.0,84,0.09,,RA,0.85,VWS V14.01,2013-04-24 04:35:00,
2013-04-23 23:40:00,43.3,38.8,29.96,West,279,0.0,6.0,84,0.10,,RA,0.86,VWS V14.01,2013-04-24 04:40:00,
2013-04-23 23:45:00,43.3,38.8,29.94,WNW,300,2.0,5.0,84,0.09,,RA,0.88,VWS V14.01,2013-04-24 04:45:00,
2013-04-23 23:50:00,43.1,38.6,29.96,WNW,288,0.0,5.0,84,0.10,,RA,0.89,VWS V14.01,2013-04-24 04:50:00,
2013-04-23 23:55:00,43.1,38.6,29.95,WNW,288,0.0,1.0,84,0.10,,RA,0.89,VWS V14.01,2013-04-24 04:55:00,